Time;durP1;ratioP1;P1;durP2;ratioP2;P2;SDS_P1;SDS_P2;PMS_P1;PMS_P2;Temp;Humidity;BMP_temperature;BMP_pressure;BME280_temperature;BME280_humidity;BME280_pressure;Samples;Min_cycle;Max_cycle;Signal;HPM_P1;HPM_P2
2023/07/20 00:01:21;;;;;;;;;;;15.00;99.90;;;;;;5000272;28;19960;-91
2023/07/20 00:03:54;;;;;;;;;;;15.20;99.90;;;;;;5002177;28;20361;-91
2023/07/20 00:06:30;;;;;;;;;;;;;;;;;;;;;
2023/07/20 00:09:58;;;;;;;;;;;;;;;;;;;;;
2023/07/20 00:12:26;;;;;;;;;;;14.90;99.90;;;;;;5011956;28;19932;-92
2023/07/20 00:14:53;;;;;;;;;;;14.90;99.90;;;;;;5018615;28;19937;-91
2023/07/20 00:17:22;;;;;;;;;;;14.90;99.90;;;;;;4986955;28;20028;-92
2023/07/20 00:19:50;;;;;;;;;;;14.90;99.90;;;;;;5003252;28;20365;-93
2023/07/20 00:22:27;;;;;;;;;;;14.90;99.90;;;;;;5023784;28;19913;-91
2023/07/20 00:24:55;;;;;;;;;;;14.80;99.90;;;;;;5011353;28;19931;-90
2023/07/20 00:27:31;;;;;;;;;;;14.80;99.90;;;;;;5026202;28;19924;-92
2023/07/20 00:29:57;;;;;;;;;;;14.90;99.90;;;;;;5025660;28;19968;-91
2023/07/20 00:32:31;;;;;;;;;;;14.90;99.90;;;;;;5025341;28;20000;-92
2023/07/20 00:35:06;;;;;;;;;;;14.90;99.90;;;;;;5009203;28;19932;-91
2023/07/20 00:37:37;;;;;;;;;;;14.90;99.90;;;;;;5008909;28;19932;-93
2023/07/20 00:40:10;;;;;;;;;;;14.90;99.90;;;;;;5002068;28;20289;-91
2023/07/20 00:42:39;;;;;;;;;;;14.80;99.90;;;;;;4966371;28;19926;-91
2023/07/20 00:45:05;;;;;;;;;;;15.00;99.90;;;;;;5002140;28;19948;-92
2023/07/20 00:48:06;;;;;;;;;;;14.70;99.90;;;;;;5000010;28;19925;-92
2023/07/20 00:50:37;;;;;;;;;;;14.70;99.90;;;;;;5002138;28;19975;-91
2023/07/20 00:56:34;;;;;;;;;;;14.60;99.90;;;;;;4997795;28;19952;-92
2023/07/20 00:59:08;;;;;;;;;;;14.60;99.90;;;;;;5018545;28;19925;-92
2023/07/20 01:01:38;;;;;;;;;;;14.60;99.90;;;;;;5001719;28;19979;-92
2023/07/20 01:04:04;;;;;;;;;;;14.50;99.90;;;;;;5002072;28;20329;-92
2023/07/20 01:06:39;;;;;;;;;;;14.40;99.90;;;;;;5001138;28;19929;-93
2023/07/20 01:12:35;;;;;;;;;;;14.20;99.90;;;;;;5034163;28;20327;-93
2023/07/20 01:15:12;;;;;;;;;;;14.10;99.90;;;;;;5013856;28;20420;-92
2023/07/20 01:17:40;;;;;;;;;;;14.00;99.90;;;;;;5001890;28;20091;-91
2023/07/20 01:20:21;;;;;;;;;;;14.00;99.90;;;;;;5000738;28;19932;-91
2023/07/20 01:23:13;;;;;;;;;;;13.90;99.90;;;;;;5000915;28;19925;-91
2023/07/20 01:25:38;;;;;;;;;;;13.90;99.90;;;;;;4997235;28;20007;-92
2023/07/20 01:28:07;;;;;;;;;;;13.80;99.90;;;;;;5017081;28;20396;-92
2023/07/20 01:30:54;;;;;;;;;;;13.80;99.90;;;;;;5013605;28;19925;-91
2023/07/20 01:33:20;;;;;;;;;;;13.80;99.90;;;;;;5001186;28;19925;-92
2023/07/20 01:35:48;;;;;;;;;;;13.70;99.90;;;;;;5002376;28;20388;-91
2023/07/20 01:38:22;;;;;;;;;;;13.60;99.90;;;;;;5000857;28;19932;-92
2023/07/20 01:43:36;;;;;;;;;;;13.50;99.90;;;;;;5033936;28;20308;-90
2023/07/20 01:46:04;;;;;;;;;;;13.50;99.90;;;;;;5017145;28;20108;-92
2023/07/20 01:48:33;;;;;;;;;;;13.40;99.90;;;;;;5005172;28;19932;-91
2023/07/20 01:51:01;;;;;;;;;;;13.30;99.90;;;;;;5033032;28;19932;-91
2023/07/20 01:53:29;;;;;;;;;;;13.70;99.90;;;;;;5033268;28;19979;-92
2023/07/20 01:55:56;;;;;;;;;;;13.20;99.90;;;;;;5016472;28;20385;-92
2023/07/20 01:58:22;;;;;;;;;;;12.90;99.90;;;;;;5032958;28;20408;-92
2023/07/20 02:00:53;;;;;;;;;;;13.10;99.90;;;;;;5032999;28;19929;-90
2023/07/20 02:03:21;;;;;;;;;;;12.90;99.90;;;;;;5033062;28;19925;-91
2023/07/20 02:08:40;;;;;;;;;;;12.70;99.90;;;;;;5029100;28;19948;-90
2023/07/20 02:11:09;;;;;;;;;;;12.70;99.90;;;;;;4996585;28;19925;-91
2023/07/20 02:13:38;;;;;;;;;;;12.60;99.90;;;;;;4980803;28;20379;-91
2023/07/20 02:16:05;;;;;;;;;;;12.60;99.90;;;;;;5010430;28;19925;-90
2023/07/20 02:18:33;;;;;;;;;;;12.60;99.90;;;;;;4980605;28;19996;-91
2023/07/20 02:21:05;;;;;;;;;;;12.60;99.90;;;;;;4980684;28;19926;-90
2023/07/20 02:23:44;;;;;;;;;;;13.00;99.90;;;;;;4981278;28;19931;-90
2023/07/20 02:33:15;;;;;;;;;;;12.30;99.90;;;;;;4997347;28;20043;-91
2023/07/20 02:35:43;;;;;;;;;;;11.80;99.90;;;;;;5000245;28;19925;-89
2023/07/20 02:38:26;;;;;;;;;;;11.90;99.90;;;;;;5016932;28;20366;-90
2023/07/20 02:40:52;;;;;;;;;;;11.40;99.90;;;;;;5000330;28;20378;-91
2023/07/20 02:43:18;;;;;;;;;;;12.10;99.90;;;;;;4984289;28;19979;-92
2023/07/20 02:45:52;;;;;;;;;;;12.10;99.90;;;;;;4984407;28;19932;-90
2023/07/20 02:48:23;;;;;;;;;;;12.10;99.90;;;;;;4984228;28;19969;-91
2023/07/20 02:50:56;;;;;;;;;;;12.10;99.90;;;;;;5020195;28;19926;-91
2023/07/20 02:53:41;;;;;;;;;;;11.70;99.90;;;;;;5005320;28;19925;-90
2023/07/20 02:56:10;;;;;;;;;;;12.10;99.90;;;;;;5004334;28;19940;-90
2023/07/20 02:58:45;;;;;;;;;;;12.10;99.90;;;;;;5022931;28;19925;-92
2023/07/20 03:01:15;;;;;;;;;;;12.10;99.90;;;;;;5009620;28;19925;-91
2023/07/20 03:03:46;;;;;;;;;;;12.00;99.90;;;;;;5025728;28;19925;-91
2023/07/20 03:06:20;;;;;;;;;;;12.00;99.90;;;;;;5026326;28;19925;-91
2023/07/20 03:08:48;;;;;;;;;;;11.90;99.90;;;;;;5006275;28;20020;-91
2023/07/20 03:11:35;;;;;;;;;;;11.00;99.90;;;;;;5023179;28;20375;-90
2023/07/20 03:14:12;;;;;;;;;;;11.30;99.90;;;;;;5017452;28;20369;-92
2023/07/20 03:16:55;;;;;;;;;;;11.70;99.90;;;;;;5014761;28;19925;-90
2023/07/20 03:19:21;;;;;;;;;;;11.70;99.90;;;;;;4998814;28;19926;-90
2023/07/20 03:21:55;;;;;;;;;;;11.70;99.90;;;;;;4999724;28;19926;-91
2023/07/20 03:24:28;;;;;;;;;;;11.70;99.90;;;;;;4983641;28;19980;-91
2023/07/20 03:27:07;;;;;;;;;;;11.70;99.90;;;;;;4984033;28;19933;-90
2023/07/20 03:29:40;;;;;;;;;;;11.70;99.90;;;;;;4968315;28;20412;-92
2023/07/20 03:32:09;;;;;;;;;;;11.10;99.90;;;;;;5000161;28;20251;-91
2023/07/20 03:34:37;;;;;;;;;;;11.70;99.90;;;;;;4983096;28;20396;-91
2023/07/20 03:37:06;;;;;;;;;;;11.70;99.90;;;;;;4981982;28;20282;-92
2023/07/20 03:39:32;;;;;;;;;;;11.70;99.90;;;;;;4983222;28;20048;-91
2023/07/20 03:41:58;;;;;;;;;;;10.90;99.90;;;;;;4983500;28;19968;-93
2023/07/20 03:44:27;;;;;;;;;;;11.70;99.90;;;;;;4985549;28;19926;-91
2023/07/20 03:46:53;;;;;;;;;;;11.70;99.90;;;;;;5012686;28;19935;-93
2023/07/20 03:49:36;;;;;;;;;;;11.60;99.90;;;;;;4997581;28;19914;-92
2023/07/20 03:52:07;;;;;;;;;;;11.60;99.90;;;;;;4999736;28;19940;-91
2023/07/20 03:54:33;;;;;;;;;;;11.60;99.90;;;;;;5022853;28;19964;-91
2023/07/20 03:57:01;;;;;;;;;;;11.70;99.90;;;;;;5003189;28;19965;-90
2023/07/20 03:59:32;;;;;;;;;;;11.70;99.90;;;;;;4986956;28;19914;-91
2023/07/20 04:02:01;;;;;;;;;;;11.80;99.90;;;;;;5034063;28;19913;-91
2023/07/20 04:04:30;;;;;;;;;;;11.60;99.90;;;;;;5008325;28;19933;-91
2023/07/20 04:07:07;;;;;;;;;;;11.60;99.90;;;;;;5019766;28;19972;-91
2023/07/20 04:09:33;;;;;;;;;;;11.60;99.90;;;;;;5002445;28;19936;-92
2023/07/20 04:11:58;;;;;;;;;;;11.60;99.90;;;;;;5002606;28;19929;-90
2023/07/20 04:14:27;;;;;;;;;;;11.70;99.90;;;;;;5002693;28;20028;-92
2023/07/20 04:17:05;;;;;;;;;;;;;;;;;;;;;
2023/07/20 04:19:34;;;;;;;;;;;11.70;99.90;;;;;;4983260;28;20128;-92
2023/07/20 04:22:02;;;;;;;;;;;11.60;99.90;;;;;;4984634;28;20064;-91
2023/07/20 04:24:40;;;;;;;;;;;11.40;99.90;;;;;;5005231;28;19925;-90
2023/07/20 04:27:14;;;;;;;;;;;11.60;99.90;;;;;;5009954;28;19926;-93
2023/07/20 04:29:40;;;;;;;;;;;11.60;99.90;;;;;;5001708;28;19976;-91
2023/07/20 04:32:06;;;;;;;;;;;11.60;99.90;;;;;;5003090;28;19929;-91
2023/07/20 04:34:37;;;;;;;;;;;11.60;99.90;;;;;;5005154;28;19926;-91
2023/07/20 04:37:15;;;;;;;;;;;;;;;;;;;;;
2023/07/20 04:39:46;;;;;;;;;;;11.60;99.90;;;;;;4996573;28;19936;-92
2023/07/20 04:42:14;;;;;;;;;;;11.40;99.90;;;;;;4963258;28;19933;-93
2023/07/20 04:44:39;;;;;;;;;;;11.60;99.90;;;;;;4972878;28;19925;-91
2023/07/20 04:47:08;;;;;;;;;;;11.60;99.90;;;;;;4997936;28;20016;-92
2023/07/20 04:49:39;;;;;;;;;;;11.60;99.90;;;;;;5005761;28;19925;-91
2023/07/20 04:52:16;;;;;;;;;;;11.70;99.90;;;;;;5034503;28;20255;-91
2023/07/20 04:54:59;;;;;;;;;;;11.80;99.90;;;;;;5034382;28;19925;-92
2023/07/20 04:57:25;;;;;;;;;;;11.90;99.90;;;;;;5017974;28;19925;-91
2023/07/20 04:59:57;;;;;;;;;;;12.00;99.90;;;;;;5017563;28;20372;-92
2023/07/20 05:02:22;;;;;;;;;;;11.80;99.90;;;;;;4978534;28;19937;-92
2023/07/20 05:04:51;;;;;;;;;;;12.20;99.90;;;;;;4978392;28;19926;-90
2023/07/20 05:07:25;;;;;;;;;;;12.20;99.90;;;;;;5000513;28;19925;-91
2023/07/20 05:09:55;;;;;;;;;;;12.20;99.90;;;;;;5002308;28;20012;-91
2023/07/20 05:12:21;;;;;;;;;;;12.30;99.90;;;;;;4985496;28;20011;-92
2023/07/20 05:14:51;;;;;;;;;;;12.40;99.90;;;;;;5002463;28;20528;-91
2023/07/20 05:17:40;;;;;;;;;;;12.40;99.90;;;;;;5004900;28;19968;-91
2023/07/20 05:20:06;;;;;;;;;;;12.50;99.90;;;;;;4999873;28;19926;-91
2023/07/20 05:22:34;;;;;;;;;;;12.60;99.90;;;;;;4992592;28;20329;-91
2023/07/20 05:25:18;;;;;;;;;;;12.60;99.90;;;;;;4978915;28;19985;-92
2023/07/20 05:27:45;;;;;;;;;;;12.60;99.90;;;;;;4994293;28;19948;-91
2023/07/20 05:30:13;;;;;;;;;;;12.70;99.90;;;;;;4964868;28;19933;-90
2023/07/20 05:33:02;;;;;;;;;;;12.70;99.90;;;;;;4988209;28;20048;-90
2023/07/20 05:35:37;;;;;;;;;;;12.50;99.90;;;;;;4988049;28;19949;-91
2023/07/20 05:38:06;;;;;;;;;;;12.80;99.90;;;;;;5002420;28;19925;-91
2023/07/20 05:40:35;;;;;;;;;;;12.90;99.90;;;;;;4999811;28;19979;-90
2023/07/20 05:43:12;;;;;;;;;;;13.00;99.90;;;;;;4988156;28;19926;-91
2023/07/20 05:45:44;;;;;;;;;;;13.00;99.90;;;;;;4991644;28;19925;-93
2023/07/20 05:48:20;;;;;;;;;;;12.70;99.90;;;;;;4981157;28;19925;-91
2023/07/20 05:50:46;;;;;;;;;;;13.10;99.90;;;;;;4980510;28;19926;-91
2023/07/20 05:53:32;;;;;;;;;;;13.50;99.90;;;;;;4996810;28;19936;-90
2023/07/20 05:56:10;;;;;;;;;;;;;;;;;;;;;
2023/07/20 05:58:36;;;;;;;;;;;13.10;99.90;;;;;;4982523;28;19926;-91
2023/07/20 06:01:08;;;;;;;;;;;13.40;99.90;;;;;;4997000;28;19929;-90
2023/07/20 06:03:34;;;;;;;;;;;12.80;99.90;;;;;;4997041;28;20403;-91
2023/07/20 06:06:11;;;;;;;;;;;13.60;99.90;;;;;;4981064;28;19925;-91
2023/07/20 06:08:42;;;;;;;;;;;13.60;99.90;;;;;;4980961;28;19926;-92
2023/07/20 06:11:11;;;;;;;;;;;13.50;99.90;;;;;;5014228;28;19968;-92
2023/07/20 06:13:36;;;;;;;;;;;13.70;99.90;;;;;;4980954;28;19976;-90
2023/07/20 06:16:03;;;;;;;;;;;13.80;99.90;;;;;;4980542;28;19980;-91
2023/07/20 06:18:36;;;;;;;;;;;13.80;99.90;;;;;;4987193;28;20354;-91
2023/07/20 06:21:04;;;;;;;;;;;13.90;99.90;;;;;;5000196;28;19982;-90
2023/07/20 06:23:50;;;;;;;;;;;13.90;99.90;;;;;;4999534;28;19978;-90
2023/07/20 06:26:16;;;;;;;;;;;14.00;99.90;;;;;;4954105;28;19926;-91
2023/07/20 06:28:49;;;;;;;;;;;14.00;99.90;;;;;;4979769;28;19926;-90
2023/07/20 06:34:38;;;;;;;;;;;14.10;99.90;;;;;;4997393;28;20107;-91
2023/07/20 06:37:08;;;;;;;;;;;14.20;99.90;;;;;;4988721;28;19925;-89
2023/07/20 06:39:36;;;;;;;;;;;14.30;99.90;;;;;;4993808;28;19925;-90
2023/07/20 06:42:04;;;;;;;;;;;14.30;99.90;;;;;;5009479;28;20029;-90
2023/07/20 06:44:35;;;;;;;;;;;14.40;99.90;;;;;;4995276;28;19929;-90
2023/07/20 06:47:04;;;;;;;;;;;13.70;99.90;;;;;;4993699;28;19926;-88
2023/07/20 06:49:29;;;;;;;;;;;14.50;99.90;;;;;;4999049;28;19925;-88
2023/07/20 06:51:58;;;;;;;;;;;14.60;99.90;;;;;;5026770;28;19925;-90
2023/07/20 06:54:26;;;;;;;;;;;14.70;99.90;;;;;;5018631;28;20392;-88
2023/07/20 06:56:54;;;;;;;;;;;14.70;99.90;;;;;;5005843;28;19952;-91
2023/07/20 06:59:24;;;;;;;;;;;14.70;99.90;;;;;;5007791;28;20003;-90
2023/07/20 07:01:54;;;;;;;;;;;14.80;99.90;;;;;;4996634;28;19933;-90
2023/07/20 07:04:20;;;;;;;;;;;14.90;99.90;;;;;;5016325;28;20283;-91
2023/07/20 07:06:57;;;;;;;;;;;14.90;99.90;;;;;;5000292;28;19925;-90
2023/07/20 07:09:30;;;;;;;;;;;14.90;99.90;;;;;;5002546;28;19983;-89
2023/07/20 07:11:57;;;;;;;;;;;15.00;99.90;;;;;;5004340;28;20286;-88
2023/07/20 07:14:22;;;;;;;;;;;15.00;99.90;;;;;;5034159;28;19979;-87
2023/07/20 07:16:48;;;;;;;;;;;15.10;99.90;;;;;;5033934;28;19977;-91
2023/07/20 07:19:14;;;;;;;;;;;15.20;99.90;;;;;;5054184;28;19913;-91
2023/07/20 07:21:39;;;;;;;;;;;15.30;99.90;;;;;;5053215;28;19936;-88
2023/07/20 07:24:07;;;;;;;;;;;15.30;99.90;;;;;;5039842;28;19992;-90
2023/07/20 07:26:33;;;;;;;;;;;15.30;99.90;;;;;;5039485;28;19913;-91
2023/07/20 07:29:10;;;;;;;;;;;15.40;99.90;;;;;;5075539;28;19968;-88
2023/07/20 07:31:36;;;;;;;;;;;15.00;99.90;;;;;;5014885;28;20015;-87
2023/07/20 07:34:02;;;;;;;;;;;15.50;99.90;;;;;;5005650;28;20408;-86
2023/07/20 07:36:28;;;;;;;;;;;15.50;99.90;;;;;;5020502;28;19925;-87
2023/07/20 07:38:54;;;;;;;;;;;15.60;99.90;;;;;;5017464;28;20024;-88
2023/07/20 07:41:20;;;;;;;;;;;15.70;99.90;;;;;;5036475;28;20012;-86
2023/07/20 07:43:48;;;;;;;;;;;15.80;99.90;;;;;;5031716;28;19925;-86
2023/07/20 07:46:14;;;;;;;;;;;16.00;99.90;;;;;;5005097;28;20580;-86
2023/07/20 07:48:42;;;;;;;;;;;15.70;99.90;;;;;;5006155;28;20012;-87
2023/07/20 07:51:18;;;;;;;;;;;16.20;99.90;;;;;;5018422;28;19925;-87
2023/07/20 07:53:45;;;;;;;;;;;16.20;99.90;;;;;;4991326;28;20396;-89
2023/07/20 07:56:13;;;;;;;;;;;16.20;99.90;;;;;;5004104;28;19979;-89
2023/07/20 07:58:42;;;;;;;;;;;15.90;99.90;;;;;;4986116;28;19933;-89
2023/07/20 08:01:10;;;;;;;;;;;16.40;99.90;;;;;;5011932;28;20012;-89
2023/07/20 08:03:38;;;;;;;;;;;16.50;99.90;;;;;;5013999;28;20408;-89
2023/07/20 08:06:04;;;;;;;;;;;16.50;99.90;;;;;;5001914;28;19932;-89
2023/07/20 08:08:30;;;;;;;;;;;16.70;99.90;;;;;;5017835;28;20265;-89
2023/07/20 08:10:56;;;;;;;;;;;16.80;99.90;;;;;;5005596;28;19933;-89
2023/07/20 08:13:22;;;;;;;;;;;16.80;99.90;;;;;;5015818;28;20285;-90
2023/07/20 08:15:53;;;;;;;;;;;16.90;99.90;;;;;;5016586;28;19947;-89
2023/07/20 08:18:19;;;;;;;;;;;17.00;99.90;;;;;;5001445;28;20382;-90
2023/07/20 08:20:47;;;;;;;;;;;17.20;99.90;;;;;;5036421;28;20018;-88
2023/07/20 08:23:15;;;;;;;;;;;17.30;99.90;;;;;;5004845;28;20370;-89
2023/07/20 08:25:44;;;;;;;;;;;17.50;99.90;;;;;;5027877;28;19947;-88
2023/07/20 08:28:13;;;;;;;;;;;17.50;99.90;;;;;;5008157;28;19929;-90
2023/07/20 08:30:45;;;;;;;;;;;17.50;99.90;;;;;;4994120;28;19925;-89
2023/07/20 08:33:15;;;;;;;;;;;17.00;99.90;;;;;;5007042;28;19936;-89
2023/07/20 08:35:41;;;;;;;;;;;17.30;99.90;;;;;;4981266;28;19932;-87
2023/07/20 08:38:10;;;;;;;;;;;17.30;99.90;;;;;;5017879;28;19931;-88
2023/07/20 08:40:39;;;;;;;;;;;17.30;99.90;;;;;;5022487;28;20047;-89
2023/07/20 08:43:05;;;;;;;;;;;17.30;99.90;;;;;;5019231;28;19932;-89
2023/07/20 08:45:36;;;;;;;;;;;17.40;99.90;;;;;;4999995;28;19928;-89
2023/07/20 08:48:03;;;;;;;;;;;17.60;99.90;;;;;;5011701;28;19947;-89
2023/07/20 08:50:32;;;;;;;;;;;17.50;99.90;;;;;;5018003;28;20012;-89
2023/07/20 08:52:59;;;;;;;;;;;17.70;99.90;;;;;;5028030;28;19925;-88
2023/07/20 08:55:27;;;;;;;;;;;17.70;99.90;;;;;;5022713;28;19925;-89
2023/07/20 08:57:57;;;;;;;;;;;17.70;99.90;;;;;;5000969;28;19964;-90
2023/07/20 09:00:23;;;;;;;;;;;17.60;99.90;;;;;;5023178;28;20037;-87
2023/07/20 09:02:59;;;;;;;;;;;17.60;99.90;;;;;;5013561;28;20270;-87
2023/07/20 09:05:25;;;;;;;;;;;17.60;99.90;;;;;;5034143;28;19960;-90
2023/07/20 09:07:51;;;;;;;;;;;17.50;99.90;;;;;;5017565;28;19933;-87
2023/07/20 09:10:17;;;;;;;;;;;17.60;99.90;;;;;;5008988;28;19925;-89
2023/07/20 09:12:43;;;;;;;;;;;17.70;99.90;;;;;;5024293;28;20326;-89
2023/07/20 09:15:12;;;;;;;;;;;17.80;99.90;;;;;;5007280;28;20022;-88
2023/07/20 09:17:38;;;;;;;;;;;17.90;99.90;;;;;;5017193;28;19931;-88
2023/07/20 09:20:10;;;;;;;;;;;18.00;99.90;;;;;;5003289;28;19925;-89
2023/07/20 09:22:39;;;;;;;;;;;18.20;99.90;;;;;;5004258;28;20328;-89
2023/07/20 09:25:15;;;;;;;;;;;18.20;99.90;;;;;;5021305;28;20012;-88
2023/07/20 09:27:44;;;;;;;;;;;18.30;99.90;;;;;;5014030;28;19932;-88
2023/07/20 09:30:14;;;;;;;;;;;18.50;99.90;;;;;;5014683;28;19971;-87
2023/07/20 09:32:46;;;;;;;;;;;18.70;99.90;;;;;;5003809;28;19925;-88
2023/07/20 09:35:16;;;;;;;;;;;18.70;99.90;;;;;;5005270;28;19963;-88
2023/07/20 09:37:46;;;;;;;;;;;18.60;99.90;;;;;;5014438;28;19976;-88
2023/07/20 09:40:14;;;;;;;;;;;18.60;99.90;;;;;;5003332;28;19929;-89
2023/07/20 09:42:40;;;;;;;;;;;18.70;99.90;;;;;;5017000;28;19975;-88
2023/07/20 09:45:09;;;;;;;;;;;18.80;99.90;;;;;;4995110;28;19928;-88
2023/07/20 09:47:41;;;;;;;;;;;18.70;99.90;;;;;;5023965;28;19932;-88
2023/07/20 09:50:10;;;;;;;;;;;18.60;99.90;;;;;;4988096;28;20392;-89
2023/07/20 09:52:45;;;;;;;;;;;18.60;99.90;;;;;;5015454;28;19932;-88
2023/07/20 09:55:12;;;;;;;;;;;18.40;99.90;;;;;;4985090;28;20332;-88
2023/07/20 09:57:38;;;;;;;;;;;18.40;99.90;;;;;;5015583;28;20374;-89
2023/07/20 10:00:11;;;;;;;;;;;18.40;99.90;;;;;;5003682;28;19926;-88
2023/07/20 10:02:40;;;;;;;;;;;18.40;99.90;;;;;;5003347;28;19931;-88
2023/07/20 10:05:10;;;;;;;;;;;18.60;99.90;;;;;;5004300;28;19925;-89
2023/07/20 10:07:36;;;;;;;;;;;18.80;99.90;;;;;;4989553;28;19925;-89
2023/07/20 10:10:03;;;;;;;;;;;19.00;99.90;;;;;;5013537;28;19999;-89
2023/07/20 10:12:34;;;;;;;;;;;19.00;99.90;;;;;;4999032;28;19925;-89
2023/07/20 10:15:13;;;;;;;;;;;19.00;99.90;;;;;;4999613;28;19970;-89
2023/07/20 10:17:49;;;;;;;;;;;19.10;99.90;;;;;;5021743;28;19973;-89
2023/07/20 10:20:19;;;;;;;;;;;19.60;99.90;;;;;;5005807;28;19925;-86
2023/07/20 10:22:48;;;;;;;;;;;19.60;99.90;;;;;;5009760;28;19975;-90
2023/07/20 10:25:14;;;;;;;;;;;19.70;99.90;;;;;;4994331;28;19925;-88
2023/07/20 10:27:42;;;;;;;;;;;19.60;99.90;;;;;;5002210;28;19957;-87
2023/07/20 10:30:08;;;;;;;;;;;19.30;99.90;;;;;;5014978;28;19925;-87
2023/07/20 10:32:34;;;;;;;;;;;19.20;99.90;;;;;;5031176;28;19932;-87
2023/07/20 10:34:59;;;;;;;;;;;19.30;99.90;;;;;;5009592;28;19925;-87
2023/07/20 10:37:44;;;;;;;;;;;19.50;99.90;;;;;;5037521;28;19925;-88
2023/07/20 10:40:27;;;;;;;;;;;19.70;99.90;;;;;;5037344;28;19935;-88
2023/07/20 10:42:56;;;;;;;;;;;19.90;99.90;;;;;;5045812;28;19936;-87
2023/07/20 10:45:32;;;;;;;;;;;20.20;99.90;;;;;;5009743;28;19980;-88
2023/07/20 10:47:58;;;;;;;;;;;20.40;99.90;;;;;;5020151;28;19926;-90
2023/07/20 10:50:31;;;;;;;;;;;20.30;99.90;;;;;;5015629;28;19932;-90
2023/07/20 10:53:16;;;;;;;;;;;20.20;99.90;;;;;;5016222;28;19929;-90
2023/07/20 10:56:05;;;;;;;;;;;20.10;99.90;;;;;;5003609;28;19979;-90
2023/07/20 10:58:31;;;;;;;;;;;19.90;99.90;;;;;;5020437;28;20046;-89
2023/07/20 11:01:00;;;;;;;;;;;19.90;99.90;;;;;;5002701;28;20004;-90
2023/07/20 11:03:33;;;;;;;;;;;19.90;99.90;;;;;;5018627;28;20013;-89
2023/07/20 11:05:59;;;;;;;;;;;20.20;99.90;;;;;;5019039;28;19925;-90
2023/07/20 11:08:41;;;;;;;;;;;20.40;99.90;;;;;;5002624;28;20004;-89
2023/07/20 11:11:22;;;;;;;;;;;20.40;99.90;;;;;;5002307;28;20324;-89
2023/07/20 11:14:07;;;;;;;;;;;20.20;99.90;;;;;;4994597;28;19932;-90
2023/07/20 11:16:43;;;;;;;;;;;20.10;99.90;;;;;;5018196;28;20388;-90
2023/07/20 11:19:32;;;;;;;;;;;20.10;99.90;;;;;;5027342;28;19968;-90
2023/07/20 11:21:58;;;;;;;;;;;20.30;99.90;;;;;;5019173;28;19932;-90
2023/07/20 11:24:29;;;;;;;;;;;20.30;99.90;;;;;;4995443;28;19925;-89
2023/07/20 11:26:54;;;;;;;;;;;20.10;99.90;;;;;;5034339;28;19952;-89
2023/07/20 11:29:30;;;;;;;;;;;20.00;99.90;;;;;;5022489;28;19929;-89
2023/07/20 11:31:59;;;;;;;;;;;20.00;99.90;;;;;;5013646;28;19961;-88
2023/07/20 11:34:27;;;;;;;;;;;20.10;99.90;;;;;;5012977;28;19925;-89
2023/07/20 11:36:58;;;;;;;;;;;20.00;99.90;;;;;;5017334;28;19935;-89
2023/07/20 11:39:27;;;;;;;;;;;20.30;99.90;;;;;;5035112;28;19925;-89
2023/07/20 11:41:57;;;;;;;;;;;20.60;99.90;;;;;;5023220;28;19933;-88
2023/07/20 11:47:18;;;;;;;;;;;21.20;99.90;;;;;;5021490;28;20396;-88
2023/07/20 11:49:51;;;;;;;;;;;21.30;98.50;;;;;;5020096;28;20404;-89
2023/07/20 11:52:19;;;;;;;;;;;21.30;99.30;;;;;;4991532;28;19925;-89
2023/07/20 11:54:49;;;;;;;;;;;21.20;99.30;;;;;;5002674;28;19948;-88
2023/07/20 11:57:19;;;;;;;;;;;21.10;98.90;;;;;;4984987;28;20292;-89
2023/07/20 12:00:01;;;;;;;;;;;20.80;98.80;;;;;;5001327;28;19929;-89
2023/07/20 12:02:29;;;;;;;;;;;20.60;99.60;;;;;;5017954;28;19925;-89
2023/07/20 12:04:55;;;;;;;;;;;20.60;98.20;;;;;;4990367;28;19925;-88
2023/07/20 12:07:26;;;;;;;;;;;20.50;98.80;;;;;;4998126;28;19932;-88
2023/07/20 12:10:06;;;;;;;;;;;20.40;99.60;;;;;;5013486;28;20056;-88
2023/07/20 12:12:46;;;;;;;;;;;20.40;99.90;;;;;;5023401;28;19980;-90
2023/07/20 12:15:17;;;;;;;;;;;20.20;99.50;;;;;;5008250;28;19929;-90
2023/07/20 12:17:43;;;;;;;;;;;20.10;99.90;;;;;;5027126;28;20004;-88
2023/07/20 12:20:17;;;;;;;;;;;20.20;99.90;;;;;;5019804;28;20385;-90
2023/07/20 12:22:43;;;;;;;;;;;20.30;99.90;;;;;;5016406;28;20369;-90
2023/07/20 12:25:11;;;;;;;;;;;20.50;99.90;;;;;;4998851;28;20012;-89
2023/07/20 12:27:39;;;;;;;;;;;20.60;99.30;;;;;;5016675;28;20008;-90
2023/07/20 12:30:08;;;;;;;;;;;20.90;99.30;;;;;;5000718;28;19925;-88
2023/07/20 12:32:34;;;;;;;;;;;21.10;98.40;;;;;;5017219;28;19975;-89
2023/07/20 12:35:00;;;;;;;;;;;21.10;99.40;;;;;;5007246;28;20324;-89
2023/07/20 12:37:26;;;;;;;;;;;21.10;99.50;;;;;;5015927;28;20001;-90
2023/07/20 12:40:02;;;;;;;;;;;21.10;97.90;;;;;;5000936;28;20086;-90
2023/07/20 12:42:30;;;;;;;;;;;20.90;99.20;;;;;;5016305;28;20324;-90
2023/07/20 12:44:56;;;;;;;;;;;20.80;98.90;;;;;;5005716;28;19925;-91
2023/07/20 12:47:24;;;;;;;;;;;20.40;99.50;;;;;;4995445;28;20017;-90
2023/07/20 12:49:52;;;;;;;;;;;20.10;99.90;;;;;;5006460;28;19925;-89
2023/07/20 12:52:20;;;;;;;;;;;19.70;99.90;;;;;;5017021;28;19979;-88
2023/07/20 12:54:46;;;;;;;;;;;19.60;99.90;;;;;;5041298;28;20012;-90
2023/07/20 12:57:21;;;;;;;;;;;19.40;99.90;;;;;;5007846;28;20383;-89
2023/07/20 12:59:58;;;;;;;;;;;19.20;99.90;;;;;;5006221;28;20272;-90
2023/07/20 13:02:45;;;;;;;;;;;19.10;99.90;;;;;;5005449;28;19968;-88
2023/07/20 13:05:10;;;;;;;;;;;19.00;99.90;;;;;;5031749;28;20369;-91
2023/07/20 13:07:37;;;;;;;;;;;19.10;99.90;;;;;;5013041;28;19936;-89
2023/07/20 13:10:11;;;;;;;;;;;19.30;99.90;;;;;;5032427;28;19929;-89
2023/07/20 13:12:39;;;;;;;;;;;19.70;99.90;;;;;;5006580;28;21327;-91
2023/07/20 13:15:08;;;;;;;;;;;20.00;99.90;;;;;;5021147;28;19925;-92
2023/07/20 13:17:35;;;;;;;;;;;20.20;99.90;;;;;;5025826;28;20015;-92
2023/07/20 13:20:02;;;;;;;;;;;20.40;99.90;;;;;;5000359;28;19952;-88
2023/07/20 13:22:30;;;;;;;;;;;20.60;99.90;;;;;;4990432;28;19936;-89
2023/07/20 13:25:06;;;;;;;;;;;20.90;99.90;;;;;;5010157;28;19932;-89
2023/07/20 13:27:37;;;;;;;;;;;21.00;99.90;;;;;;5009376;28;19928;-90
2023/07/20 13:30:06;;;;;;;;;;;21.30;99.90;;;;;;5007177;28;19928;-89
2023/07/20 13:32:34;;;;;;;;;;;21.50;99.90;;;;;;5001526;28;19940;-88
2023/07/20 13:35:00;;;;;;;;;;;21.60;99.90;;;;;;5003496;28;19925;-89
2023/07/20 13:37:28;;;;;;;;;;;21.60;97.90;;;;;;5007682;28;19933;-90
2023/07/20 13:39:56;;;;;;;;;;;21.60;99.90;;;;;;5014003;28;19929;-89
2023/07/20 13:42:32;;;;;;;;;;;21.50;99.90;;;;;;4998450;28;19952;-91
2023/07/20 13:44:57;;;;;;;;;;;21.60;99.80;;;;;;5006578;28;19932;-90
2023/07/20 13:47:39;;;;;;;;;;;21.60;99.90;;;;;;5001701;28;19925;-89
2023/07/20 13:50:06;;;;;;;;;;;21.60;98.60;;;;;;4999642;28;19925;-89
2023/07/20 13:52:37;;;;;;;;;;;21.80;99.50;;;;;;4991954;28;19987;-90
2023/07/20 13:55:05;;;;;;;;;;;21.40;98.60;;;;;;5000856;28;19936;-91
2023/07/20 13:57:36;;;;;;;;;;;21.30;99.50;;;;;;5023353;28;20020;-91
2023/07/20 14:00:05;;;;;;;;;;;21.40;98.90;;;;;;4994273;28;19979;-92
2023/07/20 14:02:31;;;;;;;;;;;21.20;97.40;;;;;;5013530;28;20586;-91
2023/07/20 14:05:00;;;;;;;;;;;21.20;97.70;;;;;;5009349;28;19929;-92
2023/07/20 14:07:28;;;;;;;;;;;21.00;97.90;;;;;;5003439;28;19960;-90
2023/07/20 14:09:54;;;;;;;;;;;20.90;98.30;;;;;;5001271;28;19968;-88
2023/07/20 14:12:21;;;;;;;;;;;20.90;98.60;;;;;;5006058;28;19929;-87
2023/07/20 14:14:49;;;;;;;;;;;20.80;99.80;;;;;;4980447;28;19925;-88
2023/07/20 14:17:18;;;;;;;;;;;20.90;97.50;;;;;;4991837;28;19932;-88
2023/07/20 14:19:48;;;;;;;;;;;21.00;99.00;;;;;;4987667;28;19964;-89
2023/07/20 14:22:14;;;;;;;;;;;21.10;98.70;;;;;;4991088;28;19933;-88
2023/07/20 14:24:39;;;;;;;;;;;21.30;98.90;;;;;;5002823;28;19941;-84
2023/07/20 14:27:05;;;;;;;;;;;21.40;99.50;;;;;;5003018;28;20004;-87
2023/07/20 14:29:32;;;;;;;;;;;21.60;99.90;;;;;;4985303;28;19960;-86
2023/07/20 14:32:00;;;;;;;;;;;21.70;97.90;;;;;;4984836;28;19926;-89
2023/07/20 14:34:28;;;;;;;;;;;21.70;96.80;;;;;;5015033;28;19926;-88
2023/07/20 14:36:54;;;;;;;;;;;21.60;96.50;;;;;;4979484;28;19964;-89
2023/07/20 14:39:20;;;;;;;;;;;21.50;98.00;;;;;;4987779;28;19926;-86
2023/07/20 14:41:46;;;;;;;;;;;21.60;97.30;;;;;;5002224;28;19972;-87
2023/07/20 14:44:11;;;;;;;;;;;21.60;97.80;;;;;;5004669;28;19929;-86
2023/07/20 14:46:37;;;;;;;;;;;21.70;97.10;;;;;;4984675;28;19925;-86
2023/07/20 14:49:03;;;;;;;;;;;21.80;96.80;;;;;;4995404;28;19925;-87
2023/07/20 14:51:33;;;;;;;;;;;21.70;96.90;;;;;;5012091;28;20351;-86
2023/07/20 14:53:59;;;;;;;;;;;21.70;97.60;;;;;;5001128;28;20339;-85
2023/07/20 14:56:27;;;;;;;;;;;21.70;96.50;;;;;;5019086;28;20010;-86
2023/07/20 14:58:53;;;;;;;;;;;21.60;95.90;;;;;;5009722;28;20067;-86
2023/07/20 15:01:18;;;;;;;;;;;21.50;97.20;;;;;;4999237;28;20376;-88
2023/07/20 15:03:54;;;;;;;;;;;;;;;;;;;;;
2023/07/20 15:06:20;;;;;;;;;;;21.60;97.40;;;;;;5001202;28;19932;-89
2023/07/20 15:08:46;;;;;;;;;;;21.70;97.50;;;;;;5017871;28;19925;-86